^^
Station Historical Data
Daily Summary for July 9, 2017 Units:  Both    English   Metric
« Previous Day
Next Day »
Daily Weekly Monthly Yearly Custom
  High: Low: Average:
Temperature: 72.9 °F /  22.7 °C 41.7 °F /  5.4 °C 56.5 °F /  13.6 °C
Dew Point: 40.3 °F /  4.6 °C 31.3 °F /  -0.4 °C 34.2 °F /  1.2 °C
Humidity: 72% 25% 46%
Wind Speed: 10.1mph /  16.3km/h - 1mph /  1.6km/h
Wind Gust: 17.0mph /  27.4km/h - -
Wind- - WSW
Pressure: 30.36 in /  1028 hPa 30.23 in /  1023.6 hPa -
Precipitation: 0.00 in /  0 mm    
Historical Graphs
 
 
Tabular Data for July 9, 2017
Time Temperature Dew Point Pressure Wind Wind Speed Wind Gust Humidity Rainfall Rate (Hourly) solar Conditions
00:01 46.6 °F /  8.1 °C 33.4 °F /  0.8 °C 30.36in /  1028hPa Calm   1.0mph /  1.6km/h 60% 0.00in /  0mm 0.0 W/m2
00:07 46.6 °F /  8.1 °C 33.4 °F /  0.8 °C 30.36in /  1028hPa Calm   3.0mph /  4.8km/h 60% 0.00in /  0mm 0.0 W/m2
00:13 46.8 °F /  8.2 °C 33.3 °F /  0.7 °C 30.36in /  1028hPa Calm   1.0mph /  1.6km/h 59% 0.00in /  0mm 0.0 W/m2
00:19 46.8 °F /  8.2 °C 33.3 °F /  0.7 °C 30.36in /  1028hPa Calm   1.0mph /  1.6km/h 59% 0.00in /  0mm 0.0 W/m2
00:25 46.6 °F /  8.1 °C 33.4 °F /  0.8 °C 30.36in /  1028hPa Calm   2.0mph /  3.2km/h 60% 0.00in /  0mm 0.0 W/m2
00:31 46.6 °F /  8.1 °C 33.4 °F /  0.8 °C 30.36in /  1028hPa Calm     60% 0.00in /  0mm 0.0 W/m2
00:37 46.6 °F /  8.1 °C 33.4 °F /  0.8 °C 30.36in /  1028hPa East 0.9mph /  1.4km/h 2.0mph /  3.2km/h 60% 0.00in /  0mm 0.0 W/m2
00:43 46.6 °F /  8.1 °C 33.4 °F /  0.8 °C 30.36in /  1028hPa Calm     60% 0.00in /  0mm 0.0 W/m2
00:49 46.6 °F /  8.1 °C 33.4 °F /  0.8 °C 30.36in /  1028hPa Calm   2.0mph /  3.2km/h 60% 0.00in /  0mm 0.0 W/m2
00:55 46.6 °F /  8.1 °C 33.4 °F /  0.8 °C 30.36in /  1028hPa Calm   2.0mph /  3.2km/h 60% 0.00in /  0mm 0.0 W/m2
01:01 46.6 °F /  8.1 °C 33.4 °F /  0.8 °C 30.36in /  1028hPa Calm     60% 0.00in /  0mm 0.0 W/m2
01:07 46.4 °F /  8 °C 33.3 °F /  0.7 °C 30.36in /  1028hPa Calm   1.0mph /  1.6km/h 60% 0.00in /  0mm 0.0 W/m2
01:13 46.2 °F /  7.9 °C 33.1 °F /  0.6 °C 30.36in /  1028hPa Calm   2.0mph /  3.2km/h 60% 0.00in /  0mm 0.0 W/m2
01:19 46.2 °F /  7.9 °C 33.1 °F /  0.6 °C 30.36in /  1028hPa Calm   2.0mph /  3.2km/h 60% 0.00in /  0mm 0.0 W/m2
01:25 46.2 °F /  7.9 °C 33.1 °F /  0.6 °C 30.36in /  1028hPa Calm   2.0mph /  3.2km/h 60% 0.00in /  0mm 0.0 W/m2
01:31 46.2 °F /  7.9 °C 33.1 °F /  0.6 °C 30.36in /  1028hPa East 2.0mph /  3.2km/h 4.0mph /  6.4km/h 60% 0.00in /  0mm 0.0 W/m2
01:37 46.0 °F /  7.8 °C 32.9 °F /  0.5 °C 30.36in /  1028hPa Calm   1.0mph /  1.6km/h 60% 0.00in /  0mm 0.0 W/m2
01:43 45.9 °F /  7.7 °C 32.7 °F /  0.4 °C 30.35in /  1027.7hPa Calm     60% 0.00in /  0mm 0.0 W/m2
01:49 45.7 °F /  7.6 °C 33.1 °F /  0.6 °C 30.35in /  1027.7hPa Calm     61% 0.00in /  0mm 0.0 W/m2
01:55 45.7 °F /  7.6 °C 33.4 °F /  0.8 °C 30.35in /  1027.7hPa Calm     62% 0.00in /  0mm 0.0 W/m2
02:01 45.7 °F /  7.6 °C 33.4 °F /  0.8 °C 30.35in /  1027.7hPa Calm     62% 0.00in /  0mm 0.0 W/m2
02:07 45.7 °F /  7.6 °C 33.4 °F /  0.8 °C 30.35in /  1027.7hPa Calm     62% 0.00in /  0mm 0.0 W/m2
02:13 45.7 °F /  7.6 °C 33.4 °F /  0.8 °C 30.34in /  1027.3hPa Calm     62% 0.00in /  0mm 0.0 W/m2
02:19 45.5 °F /  7.5 °C 33.3 °F /  0.7 °C 30.35in /  1027.7hPa Calm   1.0mph /  1.6km/h 62% 0.00in /  0mm 0.0 W/m2
02:25 45.3 °F /  7.4 °C 33.1 °F /  0.6 °C 30.34in /  1027.3hPa Calm     62% 0.00in /  0mm 0.0 W/m2
02:31 45.3 °F /  7.4 °C 33.1 °F /  0.6 °C 30.34in /  1027.3hPa Calm     62% 0.00in /  0mm 0.0 W/m2
02:37 45.1 °F /  7.3 °C 32.9 °F /  0.5 °C 30.35in /  1027.7hPa Calm     62% 0.00in /  0mm 0.0 W/m2
02:43 45.1 °F /  7.3 °C 32.9 °F /  0.5 °C 30.34in /  1027.3hPa Calm     62% 0.00in /  0mm 0.0 W/m2
02:49 45.0 °F /  7.2 °C 33.1 °F /  0.6 °C 30.34in /  1027.3hPa Calm     63% 0.00in /  0mm 0.0 W/m2
02:56 44.8 °F /  7.1 °C 32.9 °F /  0.5 °C 30.34in /  1027.3hPa Calm     63% 0.00in /  0mm 0.0 W/m2
03:02 44.8 °F /  7.1 °C 32.9 °F /  0.5 °C 30.34in /  1027.3hPa Calm     63% 0.00in /  0mm 0.0 W/m2
03:08 44.6 °F /  7 °C 32.7 °F /  0.4 °C 30.34in /  1027.3hPa Calm     63% 0.00in /  0mm 0.0 W/m2
03:14 44.6 °F /  7 °C 33.3 °F /  0.7 °C 30.33in /  1027hPa Calm     64% 0.00in /  0mm 0.0 W/m2
03:20 44.4 °F /  6.9 °C 32.5 °F /  0.3 °C 30.34in /  1027.3hPa Calm     63% 0.00in /  0mm 0.0 W/m2
03:26 44.4 °F /  6.9 °C 33.1 °F /  0.6 °C 30.33in /  1027hPa SE 0.9mph /  1.4km/h 3.0mph /  4.8km/h 64% 0.00in /  0mm 0.0 W/m2
03:32 44.2 °F /  6.8 °C 32.9 °F /  0.5 °C 30.34in /  1027.3hPa Calm     64% 0.00in /  0mm 0.0 W/m2
03:38 44.2 °F /  6.8 °C 32.9 °F /  0.5 °C 30.34in /  1027.3hPa Calm   1.0mph /  1.6km/h 64% 0.00in /  0mm 0.0 W/m2
03:44 44.1 °F /  6.7 °C 32.7 °F /  0.4 °C 30.33in /  1027hPa Calm     64% 0.00in /  0mm 0.0 W/m2
03:50 44.1 °F /  6.7 °C 32.7 °F /  0.4 °C 30.33in /  1027hPa East 2.0mph /  3.2km/h 2.0mph /  3.2km/h 64% 0.00in /  0mm 0.0 W/m2
03:56 43.9 °F /  6.6 °C 32.5 °F /  0.3 °C 30.33in /  1027hPa SE 0.9mph /  1.4km/h 2.0mph /  3.2km/h 64% 0.00in /  0mm 0.0 W/m2
04:02 43.9 °F /  6.6 °C 32.9 °F /  0.5 °C 30.33in /  1027hPa Calm     65% 0.00in /  0mm 0.0 W/m2
04:09 43.9 °F /  6.6 °C 32.9 °F /  0.5 °C 30.33in /  1027hPa Calm     65% 0.00in /  0mm 0.0 W/m2
04:15 43.9 °F /  6.6 °C 32.9 °F /  0.5 °C 30.33in /  1027hPa Calm   2.0mph /  3.2km/h 65% 0.00in /  0mm 0.0 W/m2
04:21 43.9 °F /  6.6 °C 32.9 °F /  0.5 °C 30.33in /  1027hPa Calm   1.0mph /  1.6km/h 65% 0.00in /  0mm 0.0 W/m2
04:27 43.9 °F /  6.6 °C 32.9 °F /  0.5 °C 30.33in /  1027hPa Calm     65% 0.00in /  0mm 0.0 W/m2
04:33 43.7 °F /  6.5 °C 32.7 °F /  0.4 °C 30.33in /  1027hPa Calm   2.0mph /  3.2km/h 65% 0.00in /  0mm 0.0 W/m2
04:39 43.7 °F /  6.5 °C 33.1 °F /  0.6 °C 30.33in /  1027hPa Calm   1.0mph /  1.6km/h 66% 0.00in /  0mm 0.0 W/m2
04:45 43.7 °F /  6.5 °C 33.1 °F /  0.6 °C 30.33in /  1027hPa Calm     66% 0.00in /  0mm 0.0 W/m2
04:51 43.5 °F /  6.4 °C 32.9 °F /  0.5 °C 30.33in /  1027hPa Calm     66% 0.00in /  0mm 0.0 W/m2
04:57 43.5 °F /  6.4 °C 32.9 °F /  0.5 °C 30.33in /  1027hPa Calm     66% 0.00in /  0mm 0.0 W/m2
05:03 43.3 °F /  6.3 °C 32.7 °F /  0.4 °C 30.33in /  1027hPa Calm     66% 0.00in /  0mm 0.0 W/m2
05:09 43.2 °F /  6.2 °C 32.9 °F /  0.5 °C 30.33in /  1027hPa Calm   1.0mph /  1.6km/h 67% 0.00in /  0mm 0.0 W/m2
05:16 43.2 °F /  6.2 °C 33.3 °F /  0.7 °C 30.33in /  1027hPa Calm     68% 0.00in /  0mm 0.0 W/m2
05:22 43.0 °F /  6.1 °C 32.7 °F /  0.4 °C 30.33in /  1027hPa Calm     67% 0.00in /  0mm 0.0 W/m2
05:28 42.6 °F /  5.9 °C 32.4 °F /  0.2 °C 30.33in /  1027hPa Calm     67% 0.00in /  0mm 0.0 W/m2
05:34 42.3 °F /  5.7 °C 32.5 °F /  0.3 °C 30.33in /  1027hPa Calm   1.0mph /  1.6km/h 68% 0.00in /  0mm 0.0 W/m2
05:40 42.3 °F /  5.7 °C 33.3 °F /  0.7 °C 30.33in /  1027hPa Calm     70% 0.00in /  0mm 0.0 W/m2
05:46 42.4 °F /  5.8 °C 33.1 °F /  0.6 °C 30.33in /  1027hPa Calm     69% 0.00in /  0mm 0.0 W/m2
05:52 42.4 °F /  5.8 °C 32.7 °F /  0.4 °C 30.33in /  1027hPa Calm     68% 0.00in /  0mm 0.0 W/m2
05:58 42.3 °F /  5.7 °C 32.5 °F /  0.3 °C 30.33in /  1027hPa Calm     68% 0.00in /  0mm 0.0 W/m2
06:04 42.1 °F /  5.6 °C 32.7 °F /  0.4 °C 30.33in /  1027hPa Calm     69% 0.00in /  0mm 0.0 W/m2
06:10 41.9 °F /  5.5 °C 32.9 °F /  0.5 °C 30.33in /  1027hPa Calm     70% 0.00in /  0mm 0.0 W/m2
06:16 41.7 °F /  5.4 °C 33.1 °F /  0.6 °C 30.34in /  1027.3hPa Calm     71% 0.00in /  0mm 0.0 W/m2
06:23 41.7 °F /  5.4 °C 32.7 °F /  0.4 °C 30.34in /  1027.3hPa Calm     70% 0.00in /  0mm 0.0 W/m2
06:29 41.7 °F /  5.4 °C 33.1 °F /  0.6 °C 30.34in /  1027.3hPa Calm     71% 0.00in /  0mm 0.0 W/m2
06:35 41.7 °F /  5.4 °C 33.4 °F /  0.8 °C 30.34in /  1027.3hPa Calm     72% 0.00in /  0mm 0.0 W/m2
06:41 41.9 °F /  5.5 °C 33.3 °F /  0.7 °C 30.34in /  1027.3hPa Calm     71% 0.00in /  0mm 7.0 W/m2
06:47 42.1 °F /  5.6 °C 33.1 °F /  0.6 °C 30.34in /  1027.3hPa Calm     70% 0.00in /  0mm 9.0 W/m2
06:53 42.4 °F /  5.8 °C 33.6 °F /  0.9 °C 30.34in /  1027.3hPa Calm     71% 0.00in /  0mm 12.0 W/m2
07:00 42.6 °F /  5.9 °C 33.4 °F /  0.8 °C 30.34in /  1027.3hPa Calm     70% 0.00in /  0mm 14.0 W/m2
07:05 43.0 °F /  6.1 °C 33.8 °F /  1 °C 30.34in /  1027.3hPa Calm   1.0mph /  1.6km/h 70% 0.00in /  0mm 16.0 W/m2
07:12 43.2 °F /  6.2 °C 34.0 °F /  1.1 °C 30.34in /  1027.3hPa Calm     70% 0.00in /  0mm 18.0 W/m2
07:18 43.5 °F /  6.4 °C 34.3 °F /  1.3 °C 30.34in /  1027.3hPa Calm     70% 0.00in /  0mm 19.0 W/m2
07:24 43.9 °F /  6.6 °C 34.7 °F /  1.5 °C 30.35in /  1027.7hPa Calm   1.0mph /  1.6km/h 70% 0.00in /  0mm 21.0 W/m2
07:30 44.2 °F /  6.8 °C 34.7 °F /  1.5 °C 30.34in /  1027.3hPa Calm   1.0mph /  1.6km/h 69% 0.00in /  0mm 23.0 W/m2
07:36 45.0 °F /  7.2 °C 34.7 °F /  1.5 °C 30.35in /  1027.7hPa Calm     67% 0.00in /  0mm 26.0 W/m2
07:42 45.3 °F /  7.4 °C 35.1 °F /  1.7 °C 30.35in /  1027.7hPa Calm     67% 0.00in /  0mm 26.0 W/m2
07:49 45.9 °F /  7.7 °C 36.0 °F /  2.2 °C 30.35in /  1027.7hPa Calm   2.0mph /  3.2km/h 68% 0.00in /  0mm 30.0 W/m2
07:55 46.6 °F /  8.1 °C 35.8 °F /  2.1 °C 30.36in /  1028hPa Calm   1.0mph /  1.6km/h 66% 0.00in /  0mm 32.0 W/m2
08:01 48.4 °F /  9.1 °C 36.3 °F /  2.4 °C 30.36in /  1028hPa NE 0.9mph /  1.4km/h 2.0mph /  3.2km/h 63% 0.00in /  0mm 37.0 W/m2
08:07 50.9 °F /  10.5 °C 37.0 °F /  2.8 °C 30.36in /  1028hPa Calm   3.0mph /  4.8km/h 59% 0.00in /  0mm 229.0 W/m2
08:13 52.7 °F /  11.5 °C 37.4 °F /  3 °C 30.36in /  1028hPa Calm     56% 0.00in /  0mm 287.0 W/m2
08:19 54.7 °F /  12.6 °C 37.4 °F /  3 °C 30.36in /  1028hPa Calm     52% 0.00in /  0mm 308.0 W/m2
08:25 56.7 °F /  13.7 °C 38.3 °F /  3.5 °C 30.36in /  1028hPa Calm     50% 0.00in /  0mm 327.0 W/m2
08:31 58.3 °F /  14.6 °C 37.6 °F /  3.1 °C 30.36in /  1028hPa Calm   2.0mph /  3.2km/h 46% 0.00in /  0mm 343.0 W/m2
08:38 59.9 °F /  15.5 °C 37.4 °F /  3 °C 30.36in /  1028hPa Calm     43% 0.00in /  0mm 364.0 W/m2
08:44 61.0 °F /  16.1 °C 37.8 °F /  3.2 °C 30.36in /  1028hPa Calm   1.0mph /  1.6km/h 42% 0.00in /  0mm 378.0 W/m2
08:50 61.7 °F /  16.5 °C 37.8 °F /  3.2 °C 30.36in /  1028hPa Calm   1.0mph /  1.6km/h 41% 0.00in /  0mm 399.0 W/m2
08:56 62.2 °F /  16.8 °C 38.3 °F /  3.5 °C 30.36in /  1028hPa Calm     41% 0.00in /  0mm 410.0 W/m2
09:02 63.0 °F /  17.2 °C 38.3 °F /  3.5 °C 30.36in /  1028hPa Calm   1.0mph /  1.6km/h 40% 0.00in /  0mm 425.0 W/m2
09:08 63.7 °F /  17.6 °C 38.3 °F /  3.5 °C 30.36in /  1028hPa Calm   1.0mph /  1.6km/h 39% 0.00in /  0mm 443.0 W/m2
09:14 64.6 °F /  18.1 °C 38.5 °F /  3.6 °C 30.36in /  1028hPa North 0.9mph /  1.4km/h 1.0mph /  1.6km/h 38% 0.00in /  0mm 457.0 W/m2
09:20 65.1 °F /  18.4 °C 38.1 °F /  3.4 °C 30.36in /  1028hPa NE 0.9mph /  1.4km/h 3.0mph /  4.8km/h 37% 0.00in /  0mm 469.0 W/m2
09:27 65.7 °F /  18.7 °C 38.7 °F /  3.7 °C 30.36in /  1028hPa North 0.9mph /  1.4km/h 3.0mph /  4.8km/h 37% 0.00in /  0mm 489.0 W/m2
09:33 66.0 °F /  18.9 °C 39.0 °F /  3.9 °C 30.36in /  1028hPa SW 2.0mph /  3.2km/h 2.0mph /  3.2km/h 37% 0.00in /  0mm 499.0 W/m2
09:39 66.4 °F /  19.1 °C 38.7 °F /  3.7 °C 30.36in /  1028hPa West 0.9mph /  1.4km/h 3.0mph /  4.8km/h 36% 0.00in /  0mm 515.0 W/m2
09:45 66.9 °F /  19.4 °C 39.0 °F /  3.9 °C 30.36in /  1028hPa NNW 2.0mph /  3.2km/h 4.0mph /  6.4km/h 36% 0.00in /  0mm 526.0 W/m2
09:51 66.9 °F /  19.4 °C 39.0 °F /  3.9 °C 30.36in /  1028hPa West 0.9mph /  1.4km/h 4.0mph /  6.4km/h 36% 0.00in /  0mm 534.0 W/m2
09:57 67.3 °F /  19.6 °C 39.4 °F /  4.1 °C 30.36in /  1028hPa WNW 2.9mph /  4.7km/h 5.0mph /  8km/h 36% 0.00in /  0mm 550.0 W/m2
10:03 67.6 °F /  19.8 °C 39.7 °F /  4.3 °C 30.36in /  1028hPa NNW 2.0mph /  3.2km/h 5.0mph /  8km/h 36% 0.00in /  0mm 561.0 W/m2
10:10 68.0 °F /  20 °C 39.4 °F /  4.1 °C 30.36in /  1028hPa Calm   4.0mph /  6.4km/h 35% 0.00in /  0mm 568.0 W/m2
10:16 68.4 °F /  20.2 °C 40.3 °F /  4.6 °C 30.35in /  1027.7hPa NNW 2.9mph /  4.7km/h 4.0mph /  6.4km/h 36% 0.00in /  0mm 580.0 W/m2
10:22 68.5 °F /  20.3 °C 39.7 °F /  4.3 °C 30.35in /  1027.7hPa WNW 0.9mph /  1.4km/h 8.0mph /  12.9km/h 35% 0.00in /  0mm 591.0 W/m2
10:28 68.5 °F /  20.3 °C 39.0 °F /  3.9 °C 30.34in /  1027.3hPa WSW 2.9mph /  4.7km/h 10.0mph /  16.1km/h 34% 0.00in /  0mm 599.0 W/m2
10:34 68.5 °F /  20.3 °C 39.0 °F /  3.9 °C 30.33in /  1027hPa West 8.1mph /  13km/h 8.1mph /  13km/h 34% 0.00in /  0mm 617.0 W/m2
10:40 68.5 °F /  20.3 °C 38.3 °F /  3.5 °C 30.33in /  1027hPa NNW 2.0mph /  3.2km/h 12.0mph /  19.3km/h 33% 0.00in /  0mm 619.0 W/m2
10:46 68.5 °F /  20.3 °C 38.3 °F /  3.5 °C 30.33in /  1027hPa NNW 4.0mph /  6.4km/h 17.0mph /  27.4km/h 33% 0.00in /  0mm 631.0 W/m2
10:52 68.5 °F /  20.3 °C 37.6 °F /  3.1 °C 30.33in /  1027hPa NW 6.9mph /  11.1km/h 15.0mph /  24.1km/h 32% 0.00in /  0mm 640.0 W/m2
10:59 68.7 °F /  20.4 °C 36.9 °F /  2.7 °C 30.33in /  1027hPa SW 6.0mph /  9.7km/h 13.0mph /  20.9km/h 31% 0.00in /  0mm 645.0 W/m2
11:05 68.7 °F /  20.4 °C 36.9 °F /  2.7 °C 30.33in /  1027hPa NNW 8.9mph /  14.3km/h 12.0mph /  19.3km/h 31% 0.00in /  0mm 645.0 W/m2
11:11 69.1 °F /  20.6 °C 37.2 °F /  2.9 °C 30.33in /  1027hPa North 6.0mph /  9.7km/h 11.0mph /  17.7km/h 31% 0.00in /  0mm 654.0 W/m2
11:17 69.1 °F /  20.6 °C 37.2 °F /  2.9 °C 30.33in /  1027hPa North 2.9mph /  4.7km/h 13.0mph /  20.9km/h 31% 0.00in /  0mm 654.0 W/m2
11:23 69.3 °F /  20.7 °C 38.1 °F /  3.4 °C 30.32in /  1026.6hPa NNW 4.9mph /  7.9km/h 15.0mph /  24.1km/h 32% 0.00in /  0mm 664.0 W/m2
11:29 69.3 °F /  20.7 °C 36.5 °F /  2.5 °C 30.32in /  1026.6hPa WNW 4.0mph /  6.4km/h 13.0mph /  20.9km/h 30% 0.00in /  0mm 668.0 W/m2
11:35 69.4 °F /  20.8 °C 36.7 °F /  2.6 °C 30.31in /  1026.3hPa North 4.9mph /  7.9km/h 12.0mph /  19.3km/h 30% 0.00in /  0mm 668.0 W/m2
11:42 69.8 °F /  21 °C 37.0 °F /  2.8 °C 30.31in /  1026.3hPa WNW 4.9mph /  7.9km/h 15.0mph /  24.1km/h 30% 0.00in /  0mm 663.0 W/m2
11:48 70.2 °F /  21.2 °C 37.2 °F /  2.9 °C 30.31in /  1026.3hPa NNW 2.9mph /  4.7km/h 13.0mph /  20.9km/h 30% 0.00in /  0mm 663.0 W/m2
11:54 70.3 °F /  21.3 °C 37.4 °F /  3 °C 30.30in /  1026hPa NNW 4.0mph /  6.4km/h 8.0mph /  12.9km/h 30% 0.00in /  0mm 666.0 W/m2
12:00 70.5 °F /  21.4 °C 37.6 °F /  3.1 °C 30.30in /  1026hPa North 2.9mph /  4.7km/h 12.0mph /  19.3km/h 30% 0.00in /  0mm 668.0 W/m2
12:06 70.5 °F /  21.4 °C 37.6 °F /  3.1 °C 30.30in /  1026hPa NW 2.0mph /  3.2km/h 11.0mph /  17.7km/h 30% 0.00in /  0mm 664.0 W/m2
12:12 70.7 °F /  21.5 °C 37.8 °F /  3.2 °C 30.29in /  1025.6hPa NE 4.0mph /  6.4km/h 11.0mph /  17.7km/h 30% 0.00in /  0mm 666.0 W/m2
12:18 70.9 °F /  21.6 °C 37.9 °F /  3.3 °C 30.29in /  1025.6hPa NW 2.9mph /  4.7km/h 11.0mph /  17.7km/h 30% 0.00in /  0mm 664.0 W/m2
12:24 70.9 °F /  21.6 °C 37.9 °F /  3.3 °C 30.29in /  1025.6hPa West 0.9mph /  1.4km/h 12.0mph /  19.3km/h 30% 0.00in /  0mm 657.0 W/m2
12:30 70.7 °F /  21.5 °C 37.8 °F /  3.2 °C 30.29in /  1025.6hPa WNW 0.9mph /  1.4km/h 11.0mph /  17.7km/h 30% 0.00in /  0mm 659.0 W/m2
12:37 71.1 °F /  21.7 °C 38.1 °F /  3.4 °C 30.28in /  1025.3hPa NNW 8.9mph /  14.3km/h 9.0mph /  14.5km/h 30% 0.00in /  0mm 650.0 W/m2
12:43 71.1 °F /  21.7 °C 38.1 °F /  3.4 °C 30.28in /  1025.3hPa NNW 6.9mph /  11.1km/h 9.0mph /  14.5km/h 30% 0.00in /  0mm 642.0 W/m2
12:49 71.4 °F /  21.9 °C 37.6 °F /  3.1 °C 30.28in /  1025.3hPa WNW 2.0mph /  3.2km/h 11.0mph /  17.7km/h 29% 0.00in /  0mm 643.0 W/m2
12:55 71.2 °F /  21.8 °C 37.4 °F /  3 °C 30.27in /  1024.9hPa NNW 10.1mph /  16.3km/h 10.1mph /  16.3km/h 29% 0.00in /  0mm 631.0 W/m2
13:01 71.2 °F /  21.8 °C 37.4 °F /  3 °C 30.27in /  1024.9hPa West 2.0mph /  3.2km/h 5.0mph /  8km/h 29% 0.00in /  0mm 628.0 W/m2
13:07 71.4 °F /  21.9 °C 36.7 °F /  2.6 °C 30.26in /  1024.6hPa WNW 4.0mph /  6.4km/h 11.0mph /  17.7km/h 28% 0.00in /  0mm 617.0 W/m2
13:13 71.4 °F /  21.9 °C 37.6 °F /  3.1 °C 30.26in /  1024.6hPa West 2.0mph /  3.2km/h 4.0mph /  6.4km/h 29% 0.00in /  0mm 617.0 W/m2
13:20 71.4 °F /  21.9 °C 37.6 °F /  3.1 °C 30.26in /  1024.6hPa WNW 2.0mph /  3.2km/h 10.0mph /  16.1km/h 29% 0.00in /  0mm 606.0 W/m2
13:26 71.6 °F /  22 °C 36.7 °F /  2.6 °C 30.26in /  1024.6hPa SW 0.9mph /  1.4km/h 6.0mph /  9.7km/h 28% 0.00in /  0mm 599.0 W/m2
13:32 71.8 °F /  22.1 °C 36.9 °F /  2.7 °C 30.25in /  1024.3hPa WNW 0.9mph /  1.4km/h 10.0mph /  16.1km/h 28% 0.00in /  0mm 587.0 W/m2
13:38 72.0 °F /  22.2 °C 37.0 °F /  2.8 °C 30.25in /  1024.3hPa NW 0.9mph /  1.4km/h 7.0mph /  11.3km/h 28% 0.00in /  0mm 582.0 W/m2
13:44 72.0 °F /  22.2 °C 37.0 °F /  2.8 °C 30.25in /  1024.3hPa Calm   5.0mph /  8km/h 28% 0.00in /  0mm 571.0 W/m2
13:50 72.1 °F /  22.3 °C 37.2 °F /  2.9 °C 30.25in /  1024.3hPa Calm   6.0mph /  9.7km/h 28% 0.00in /  0mm 561.0 W/m2
13:56 72.3 °F /  22.4 °C 35.6 °F /  2 °C 30.25in /  1024.3hPa NW 4.9mph /  7.9km/h 16.0mph /  25.7km/h 26% 0.00in /  0mm 555.0 W/m2
14:02 72.3 °F /  22.4 °C 36.5 °F /  2.5 °C 30.24in /  1023.9hPa WNW 8.1mph /  13km/h 9.0mph /  14.5km/h 27% 0.00in /  0mm 534.0 W/m2
14:09 72.3 °F /  22.4 °C 36.5 °F /  2.5 °C 30.24in /  1023.9hPa Calm   5.0mph /  8km/h 27% 0.00in /  0mm 522.0 W/m2
14:15 72.1 °F /  22.3 °C 36.3 °F /  2.4 °C 30.24in /  1023.9hPa NW 6.0mph /  9.7km/h 11.0mph /  17.7km/h 27% 0.00in /  0mm 508.0 W/m2
14:21 72.3 °F /  22.4 °C 36.5 °F /  2.5 °C 30.24in /  1023.9hPa West 2.9mph /  4.7km/h 9.0mph /  14.5km/h 27% 0.00in /  0mm 492.0 W/m2
14:27 72.5 °F /  22.5 °C 36.7 °F /  2.6 °C 30.24in /  1023.9hPa WNW 2.9mph /  4.7km/h 5.0mph /  8km/h 27% 0.00in /  0mm 471.0 W/m2
14:33 72.7 °F /  22.6 °C 36.9 °F /  2.7 °C 30.24in /  1023.9hPa West 2.0mph /  3.2km/h 7.0mph /  11.3km/h 27% 0.00in /  0mm 459.0 W/m2
14:39 72.9 °F /  22.7 °C 36.0 °F /  2.2 °C 30.24in /  1023.9hPa NE 2.9mph /  4.7km/h 8.0mph /  12.9km/h 26% 0.00in /  0mm 443.0 W/m2
14:45 72.9 °F /  22.7 °C 36.0 °F /  2.2 °C 30.24in /  1023.9hPa Calm   6.0mph /  9.7km/h 26% 0.00in /  0mm 432.0 W/m2
14:52 72.9 °F /  22.7 °C 36.0 °F /  2.2 °C 30.23in /  1023.6hPa WNW 8.1mph /  13km/h 9.0mph /  14.5km/h 26% 0.00in /  0mm 410.0 W/m2
14:58 72.9 °F /  22.7 °C 36.0 °F /  2.2 °C 30.23in /  1023.6hPa SW 4.9mph /  7.9km/h 5.0mph /  8km/h 26% 0.00in /  0mm 396.0 W/m2
15:10 72.1 °F /  22.3 °C 35.4 °F /  1.9 °C 30.23in /  1023.6hPa West 0.9mph /  1.4km/h 5.0mph /  8km/h 26% 0.00in /  0mm 359.0 W/m2
15:16 72.0 °F /  22.2 °C 34.2 °F /  1.2 °C 30.23in /  1023.6hPa NNW 4.0mph /  6.4km/h 8.0mph /  12.9km/h 25% 0.00in /  0mm 338.0 W/m2
15:22 72.0 °F /  22.2 °C 35.2 °F /  1.8 °C 30.23in /  1023.6hPa Calm   10.0mph /  16.1km/h 26% 0.00in /  0mm 318.0 W/m2
15:28 71.8 °F /  22.1 °C 35.1 °F /  1.7 °C 30.23in /  1023.6hPa Calm   3.0mph /  4.8km/h 26% 0.00in /  0mm 149.0 W/m2
15:35 71.8 °F /  22.1 °C 34.0 °F /  1.1 °C 30.23in /  1023.6hPa WNW 0.9mph /  1.4km/h 5.0mph /  8km/h 25% 0.00in /  0mm 49.0 W/m2
15:41 71.4 °F /  21.9 °C 33.8 °F /  1 °C 30.23in /  1023.6hPa NNW 2.0mph /  3.2km/h 4.0mph /  6.4km/h 25% 0.00in /  0mm 46.0 W/m2
15:47 71.4 °F /  21.9 °C 33.8 °F /  1 °C 30.23in /  1023.6hPa Calm   3.0mph /  4.8km/h 25% 0.00in /  0mm 44.0 W/m2
15:53 71.2 °F /  21.8 °C 33.6 °F /  0.9 °C 30.23in /  1023.6hPa NW 2.9mph /  4.7km/h 8.0mph /  12.9km/h 25% 0.00in /  0mm 42.0 W/m2
15:59 71.1 °F /  21.7 °C 33.4 °F /  0.8 °C 30.23in /  1023.6hPa NW 2.0mph /  3.2km/h 7.0mph /  11.3km/h 25% 0.00in /  0mm 40.0 W/m2
16:05 70.7 °F /  21.5 °C 33.1 °F /  0.6 °C 30.23in /  1023.6hPa West 8.1mph /  13km/h 8.1mph /  13km/h 25% 0.00in /  0mm 37.0 W/m2
16:11 70.3 °F /  21.3 °C 33.8 °F /  1 °C 30.23in /  1023.6hPa NNW 0.9mph /  1.4km/h 5.0mph /  8km/h 26% 0.00in /  0mm 32.0 W/m2
16:18 70.2 °F /  21.2 °C 34.7 °F /  1.5 °C 30.23in /  1023.6hPa NE 0.9mph /  1.4km/h 3.0mph /  4.8km/h 27% 0.00in /  0mm 28.0 W/m2
16:24 69.8 °F /  21 °C 33.4 °F /  0.8 °C 30.23in /  1023.6hPa NNW 0.9mph /  1.4km/h 10.0mph /  16.1km/h 26% 0.00in /  0mm 26.0 W/m2
16:30 69.6 °F /  20.9 °C 34.2 °F /  1.2 °C 30.23in /  1023.6hPa WNW 2.9mph /  4.7km/h 9.0mph /  14.5km/h 27% 0.00in /  0mm 25.0 W/m2
16:36 69.4 °F /  20.8 °C 34.0 °F /  1.1 °C 30.23in /  1023.6hPa Calm   7.0mph /  11.3km/h 27% 0.00in /  0mm 23.0 W/m2
16:42 69.3 °F /  20.7 °C 33.8 °F /  1 °C 30.23in /  1023.6hPa Calm   10.0mph /  16.1km/h 27% 0.00in /  0mm 21.0 W/m2
16:48 68.9 °F /  20.5 °C 33.6 °F /  0.9 °C 30.24in /  1023.9hPa Calm   4.0mph /  6.4km/h 27% 0.00in /  0mm 19.0 W/m2
16:54 68.5 °F /  20.3 °C 33.3 °F /  0.7 °C 30.24in /  1023.9hPa WSW 0.9mph /  1.4km/h 7.0mph /  11.3km/h 27% 0.00in /  0mm 16.0 W/m2
17:00 68.4 °F /  20.2 °C 33.1 °F /  0.6 °C 30.24in /  1023.9hPa NNW 4.9mph /  7.9km/h 5.0mph /  8km/h 27% 0.00in /  0mm 14.0 W/m2
17:07 67.8 °F /  19.9 °C 32.5 °F /  0.3 °C 30.24in /  1023.9hPa Calm   6.0mph /  9.7km/h 27% 0.00in /  0mm 11.0 W/m2
17:13 67.6 °F /  19.8 °C 32.5 °F /  0.3 °C 30.24in /  1023.9hPa Calm   3.0mph /  4.8km/h 27% 0.00in /  0mm 7.0 W/m2
17:19 67.3 °F /  19.6 °C 32.2 °F /  0.1 °C 30.24in /  1023.9hPa Calm     27% 0.00in /  0mm 5.0 W/m2
17:25 66.7 °F /  19.3 °C 32.5 °F /  0.3 °C 30.24in /  1023.9hPa Calm   1.0mph /  1.6km/h 28% 0.00in /  0mm 0.0 W/m2
17:31 66.2 °F /  19 °C 32.2 °F /  0.1 °C 30.25in /  1024.3hPa Calm   1.0mph /  1.6km/h 28% 0.00in /  0mm 0.0 W/m2
17:37 65.7 °F /  18.7 °C 32.5 °F /  0.3 °C 30.25in /  1024.3hPa Calm     29% 0.00in /  0mm 0.0 W/m2
17:43 65.1 °F /  18.4 °C 32.9 °F /  0.5 °C 30.25in /  1024.3hPa Calm     30% 0.00in /  0mm 0.0 W/m2
17:49 64.4 °F /  18 °C 32.4 °F /  0.2 °C 30.25in /  1024.3hPa Calm     30% 0.00in /  0mm 0.0 W/m2
17:56 63.7 °F /  17.6 °C 32.5 °F /  0.3 °C 30.25in /  1024.3hPa Calm     31% 0.00in /  0mm 0.0 W/m2
18:02 63.1 °F /  17.3 °C 32.7 °F /  0.4 °C 30.25in /  1024.3hPa Calm     32% 0.00in /  0mm 0.0 W/m2
18:08 62.4 °F /  16.9 °C 32.9 °F /  0.5 °C 30.26in /  1024.6hPa Calm     33% 0.00in /  0mm 0.0 W/m2
18:14 61.5 °F /  16.4 °C 32.9 °F /  0.5 °C 30.26in /  1024.6hPa Calm     34% 0.00in /  0mm 0.0 W/m2
18:20 61.0 °F /  16.1 °C 32.4 °F /  0.2 °C 30.26in /  1024.6hPa Calm     34% 0.00in /  0mm 0.0 W/m2
18:26 60.1 °F /  15.6 °C 32.4 °F /  0.2 °C 30.27in /  1024.9hPa Calm     35% 0.00in /  0mm 0.0 W/m2
18:33 59.4 °F /  15.2 °C 32.4 °F /  0.2 °C 30.26in /  1024.6hPa Calm     36% 0.00in /  0mm 0.0 W/m2
18:39 58.6 °F /  14.8 °C 32.4 °F /  0.2 °C 30.27in /  1024.9hPa Calm     37% 0.00in /  0mm 0.0 W/m2
18:45 57.9 °F /  14.4 °C 31.8 °F /  -0.1 °C 30.27in /  1024.9hPa Calm     37% 0.00in /  0mm 0.0 W/m2
18:51 57.4 °F /  14.1 °C 32.0 °F /  0 °C 30.27in /  1024.9hPa Calm     38% 0.00in /  0mm 0.0 W/m2
18:57 56.8 °F /  13.8 °C 31.5 °F /  -0.3 °C 30.27in /  1024.9hPa Calm     38% 0.00in /  0mm 0.0 W/m2
19:03 56.1 °F /  13.4 °C 31.5 °F /  -0.3 °C 30.28in /  1025.3hPa Calm     39% 0.00in /  0mm 0.0 W/m2
19:09 55.8 °F /  13.2 °C 31.8 °F /  -0.1 °C 30.28in /  1025.3hPa Calm     40% 0.00in /  0mm 0.0 W/m2
19:15 55.2 °F /  12.9 °C 31.3 °F /  -0.4 °C 30.28in /  1025.3hPa Calm     40% 0.00in /  0mm 0.0 W/m2
19:21 54.9 °F /  12.7 °C 31.6 °F /  -0.2 °C 30.28in /  1025.3hPa Calm     41% 0.00in /  0mm 0.0 W/m2
19:27 54.5 °F /  12.5 °C 31.8 °F /  -0.1 °C 30.28in /  1025.3hPa Calm     42% 0.00in /  0mm 0.0 W/m2
19:33 54.1 °F /  12.3 °C 32.2 °F /  0.1 °C 30.28in /  1025.3hPa Calm   1.0mph /  1.6km/h 43% 0.00in /  0mm 0.0 W/m2
19:40 54.0 °F /  12.2 °C 32.0 °F /  0 °C 30.28in /  1025.3hPa Calm     43% 0.00in /  0mm 0.0 W/m2
19:42 53.8 °F /  12.1 °C 31.8 °F /  -0.1 °C 30.29in /  1025.6hPa Calm     43% 0.00in /  0mm 0.0 W/m2
19:48 53.4 °F /  11.9 °C 32.0 °F /  0 °C 30.29in /  1025.6hPa Calm     44% 0.00in /  0mm 0.0 W/m2
19:54 53.4 °F /  11.9 °C 31.5 °F /  -0.3 °C 30.29in /  1025.6hPa Calm   1.0mph /  1.6km/h 43% 0.00in /  0mm 0.0 W/m2
20:00 53.2 °F /  11.8 °C 31.8 °F /  -0.1 °C 30.29in /  1025.6hPa Calm     44% 0.00in /  0mm 0.0 W/m2
20:06 53.2 °F /  11.8 °C 31.8 °F /  -0.1 °C 30.29in /  1025.6hPa Calm     44% 0.00in /  0mm 0.0 W/m2
20:12 53.1 °F /  11.7 °C 31.6 °F /  -0.2 °C 30.29in /  1025.6hPa Calm     44% 0.00in /  0mm 0.0 W/m2
20:18 53.1 °F /  11.7 °C 31.6 °F /  -0.2 °C 30.29in /  1025.6hPa Calm     44% 0.00in /  0mm 0.0 W/m2
20:24 52.9 °F /  11.6 °C 31.6 °F /  -0.2 °C 30.30in /  1026hPa Calm     44% 0.00in /  0mm 0.0 W/m2
20:31 52.5 °F /  11.4 °C 31.8 °F /  -0.1 °C 30.30in /  1026hPa Calm   2.0mph /  3.2km/h 45% 0.00in /  0mm 0.0 W/m2
20:37 52.3 °F /  11.3 °C 31.6 °F /  -0.2 °C 30.30in /  1026hPa Calm   1.0mph /  1.6km/h 45% 0.00in /  0mm 0.0 W/m2
20:43 52.3 °F /  11.3 °C 31.6 °F /  -0.2 °C 30.30in /  1026hPa Calm   2.0mph /  3.2km/h 45% 0.00in /  0mm 0.0 W/m2
20:49 52.3 °F /  11.3 °C 31.6 °F /  -0.2 °C 30.30in /  1026hPa Calm   1.0mph /  1.6km/h 45% 0.00in /  0mm 0.0 W/m2
20:55 52.3 °F /  11.3 °C 31.6 °F /  -0.2 °C 30.31in /  1026.3hPa Calm     45% 0.00in /  0mm 0.0 W/m2
21:01 52.3 °F /  11.3 °C 31.6 °F /  -0.2 °C 30.31in /  1026.3hPa Calm     45% 0.00in /  0mm 0.0 W/m2
21:07 52.5 °F /  11.4 °C 31.8 °F /  -0.1 °C 30.31in /  1026.3hPa Calm     45% 0.00in /  0mm 0.0 W/m2
21:15 52.3 °F /  11.3 °C 32.2 °F /  0.1 °C 30.31in /  1026.3hPa Calm     46% 0.00in /  0mm 0.0 W/m2
21:21 52.2 °F /  11.2 °C 32.0 °F /  0 °C 30.32in /  1026.6hPa Calm     46% 0.00in /  0mm 0.0 W/m2
21:27 52.2 °F /  11.2 °C 32.0 °F /  0 °C 30.32in /  1026.6hPa Calm     46% 0.00in /  0mm 0.0 W/m2
21:34 52.0 °F /  11.1 °C 31.8 °F /  -0.1 °C 30.32in /  1026.6hPa Calm   1.0mph /  1.6km/h 46% 0.00in /  0mm 0.0 W/m2
21:40 51.8 °F /  11 °C 32.2 °F /  0.1 °C 30.32in /  1026.6hPa Calm     47% 0.00in /  0mm 0.0 W/m2
21:46 51.6 °F /  10.9 °C 32.0 °F /  0 °C 30.32in /  1026.6hPa Calm     47% 0.00in /  0mm 0.0 W/m2
21:52 51.6 °F /  10.9 °C 32.0 °F /  0 °C 30.33in /  1027hPa Calm     47% 0.00in /  0mm 0.0 W/m2
21:58 51.6 °F /  10.9 °C 32.0 °F /  0 °C 30.33in /  1027hPa Calm     47% 0.00in /  0mm 0.0 W/m2
22:04 51.4 °F /  10.8 °C 31.8 °F /  -0.1 °C 30.33in /  1027hPa Calm   1.0mph /  1.6km/h 47% 0.00in /  0mm 0.0 W/m2
22:11 51.3 °F /  10.7 °C 31.6 °F /  -0.2 °C 30.33in /  1027hPa Calm   1.0mph /  1.6km/h 47% 0.00in /  0mm 0.0 W/m2
22:17 51.1 °F /  10.6 °C 32.0 °F /  0 °C 30.33in /  1027hPa Calm     48% 0.00in /  0mm 0.0 W/m2
22:23 50.7 °F /  10.4 °C 31.8 °F /  -0.1 °C 30.33in /  1027hPa ENE 0.9mph /  1.4km/h 2.0mph /  3.2km/h 48% 0.00in /  0mm 0.0 W/m2
22:29 50.5 °F /  10.3 °C 31.6 °F /  -0.2 °C 30.33in /  1027hPa Calm     48% 0.00in /  0mm 0.0 W/m2
22:35 50.4 °F /  10.2 °C 32.0 °F /  0 °C 30.33in /  1027hPa Calm     49% 0.00in /  0mm 0.0 W/m2
22:41 50.2 °F /  10.1 °C 31.8 °F /  -0.1 °C 30.33in /  1027hPa Calm   2.0mph /  3.2km/h 49% 0.00in /  0mm 0.0 W/m2
22:47 50.2 °F /  10.1 °C 32.2 °F /  0.1 °C 30.33in /  1027hPa Calm   1.0mph /  1.6km/h 50% 0.00in /  0mm 0.0 W/m2
22:54 50.0 °F /  10 °C 32.2 °F /  0.1 °C 30.32in /  1026.6hPa ESE 0.9mph /  1.4km/h 1.0mph /  1.6km/h 50% 0.00in /  0mm 0.0 W/m2
23:00 50.0 °F /  10 °C 32.2 °F /  0.1 °C 30.32in /  1026.6hPa Calm     50% 0.00in /  0mm 0.0 W/m2
23:06 50.0 °F /  10 °C 32.2 °F /  0.1 °C 30.32in /  1026.6hPa Calm     50% 0.00in /  0mm 0.0 W/m2
23:12 50.0 °F /  10 °C 32.2 °F /  0.1 °C 30.32in /  1026.6hPa Calm     50% 0.00in /  0mm 0.0 W/m2
23:18 49.8 °F /  9.9 °C 32.0 °F /  0 °C 30.32in /  1026.6hPa Calm   1.0mph /  1.6km/h 50% 0.00in /  0mm 0.0 W/m2
23:24 49.6 °F /  9.8 °C 31.8 °F /  -0.1 °C 30.32in /  1026.6hPa Calm   1.0mph /  1.6km/h 50% 0.00in /  0mm 0.0 W/m2
23:30 49.5 °F /  9.7 °C 31.6 °F /  -0.2 °C 30.32in /  1026.6hPa Calm   1.0mph /  1.6km/h 50% 0.00in /  0mm 0.0 W/m2
23:36 49.3 °F /  9.6 °C 32.0 °F /  0 °C 30.32in /  1026.6hPa Calm     51% 0.00in /  0mm 0.0 W/m2
23:42 48.9 °F /  9.4 °C 32.0 °F /  0 °C 30.32in /  1026.6hPa Calm     52% 0.00in /  0mm 0.0 W/m2
23:48 48.9 °F /  9.4 °C 32.0 °F /  0 °C 30.31in /  1026.3hPa Calm   1.0mph /  1.6km/h 52% 0.00in /  0mm 0.0 W/m2
23:54 48.9 °F /  9.4 °C 32.0 °F /  0 °C 30.31in /  1026.3hPa Calm   1.0mph /  1.6km/h 52% 0.00in /  0mm 0.0 W/m2
Olympia, Windhoek, Namibia
Compliments of Weather Underground - 3 mb